createdAt,value
2024-04-30T00:00:21.086Z,77.84
2024-04-30T00:02:47.635Z,77.77
2024-04-30T00:05:14.315Z,77.79
2024-04-30T00:07:42.011Z,77.74
2024-04-30T00:10:08.608Z,77.66
2024-04-30T00:12:35.190Z,77.61
2024-04-30T00:15:02.923Z,77.99
2024-04-30T00:17:29.679Z,77.74
2024-04-30T00:19:56.524Z,77.57
2024-04-30T00:22:23.302Z,77.20
2024-04-30T00:24:49.891Z,77.31
2024-04-30T00:27:16.512Z,77.27
2024-04-30T00:29:43.165Z,77.16
2024-04-30T00:32:09.756Z,76.98
2024-04-30T00:34:38.185Z,77.08
2024-04-30T00:37:04.810Z,76.48
2024-04-30T00:39:31.457Z,76.88
2024-04-30T00:41:58.171Z,76.84
2024-04-30T00:44:24.787Z,76.69
2024-04-30T00:46:51.460Z,76.77
2024-04-30T00:49:18.979Z,76.95
2024-04-30T00:51:45.685Z,77.08
2024-04-30T00:54:12.879Z,77.14
2024-04-30T00:56:39.516Z,76.90
2024-04-30T00:59:06.087Z,77.18
2024-04-30T01:01:33.336Z,77.16
2024-04-30T01:03:59.962Z,77.08
2024-04-30T01:06:26.562Z,77.40
2024-04-30T01:08:53.293Z,77.32
2024-04-30T01:11:20.384Z,77.27
2024-04-30T01:13:47.029Z,77.56
2024-04-30T01:16:13.649Z,77.42
2024-04-30T01:18:40.242Z,77.53
2024-04-30T01:21:06.823Z,77.86
2024-04-30T01:23:33.412Z,77.61
2024-04-30T01:26:00.510Z,77.60
2024-04-30T01:28:27.133Z,77.65
2024-04-30T01:30:54.468Z,77.29
2024-04-30T01:33:21.053Z,77.70
2024-04-30T01:35:47.861Z,77.58
2024-04-30T01:38:14.564Z,77.70
2024-04-30T01:40:41.246Z,77.89
2024-04-30T01:43:08.058Z,78.00
2024-04-30T01:45:34.777Z,77.94
2024-04-30T01:48:01.488Z,77.81
2024-04-30T01:50:28.095Z,78.04
2024-04-30T01:52:54.661Z,78.23
2024-04-30T01:55:21.278Z,78.27
2024-04-30T01:57:48.127Z,78.38
2024-04-30T02:00:14.920Z,78.39
2024-04-30T02:02:41.505Z,78.39
2024-04-30T02:05:13.755Z,78.59
2024-04-30T02:07:48.017Z,78.97
2024-04-30T02:10:15.010Z,78.79
2024-04-30T02:12:41.623Z,79.01
2024-04-30T02:15:08.368Z,78.95
2024-04-30T02:17:35.314Z,79.47
2024-04-30T02:20:02.974Z,79.28
2024-04-30T02:22:29.662Z,79.60
2024-04-30T02:24:56.839Z,79.83
2024-04-30T02:27:23.438Z,79.93
2024-04-30T02:29:50.081Z,80.00
2024-04-30T02:32:35.250Z,79.87
2024-04-30T02:35:01.880Z,80.19
2024-04-30T02:37:28.570Z,80.44
2024-04-30T02:39:55.180Z,80.49
2024-04-30T02:42:21.760Z,80.38
2024-04-30T02:44:48.354Z,80.63
2024-04-30T02:47:14.949Z,80.81
2024-04-30T02:49:41.561Z,80.49
2024-04-30T02:52:08.215Z,81.22
2024-04-30T02:54:34.839Z,81.37
2024-04-30T02:57:01.459Z,81.33
2024-04-30T02:59:28.222Z,81.89
2024-04-30T03:01:55.815Z,81.75
2024-04-30T03:04:22.577Z,82.18
2024-04-30T03:06:49.423Z,81.71
2024-04-30T03:09:16.075Z,82.30
2024-04-30T03:11:45.960Z,82.19
2024-04-30T03:14:13.547Z,82.38
2024-04-30T03:16:43.582Z,82.44
2024-04-30T03:19:10.230Z,82.47
2024-04-30T03:21:36.877Z,83.02
2024-04-30T03:24:03.478Z,82.56
2024-04-30T03:26:30.135Z,83.13
2024-04-30T03:28:56.726Z,83.02
2024-04-30T03:31:23.318Z,83.31
2024-04-30T03:33:50.493Z,83.50
2024-04-30T03:36:19.282Z,83.01
2024-04-30T03:38:45.936Z,83.68
2024-04-30T03:41:14.130Z,83.55
2024-04-30T03:43:40.776Z,83.17
2024-04-30T03:46:13.170Z,83.68
2024-04-30T03:48:40.068Z,84.00
2024-04-30T03:51:06.673Z,84.06
2024-04-30T03:53:33.213Z,84.29
2024-04-30T03:55:59.803Z,84.60
2024-04-30T03:58:26.463Z,84.87
2024-04-30T04:00:53.138Z,85.01
2024-04-30T04:03:19.904Z,84.67
2024-04-30T04:05:46.625Z,85.01
2024-04-30T04:08:13.214Z,85.12
2024-04-30T04:10:42.542Z,85.00
2024-04-30T04:13:27.967Z,84.90
2024-04-30T04:15:54.673Z,84.64
2024-04-30T04:18:21.315Z,84.48
2024-04-30T04:20:47.949Z,84.55
2024-04-30T04:23:14.489Z,84.36
2024-04-30T04:25:41.189Z,84.49
2024-04-30T04:28:07.805Z,84.35
2024-04-30T04:30:34.399Z,84.51
2024-04-30T04:33:01.634Z,84.47
2024-04-30T04:35:28.344Z,84.83
2024-04-30T04:37:54.955Z,85.22
2024-04-30T04:40:21.578Z,85.20
2024-04-30T04:42:48.161Z,84.89
2024-04-30T04:45:14.761Z,84.72
2024-04-30T04:47:41.383Z,84.72
2024-04-30T04:50:08.247Z,84.44
2024-04-30T04:52:34.968Z,84.19
2024-04-30T04:55:04.099Z,83.75
2024-04-30T04:57:31.396Z,83.50
2024-04-30T04:59:58.245Z,83.60
2024-04-30T05:02:24.860Z,83.27
2024-04-30T05:04:51.598Z,83.42
2024-04-30T05:07:18.607Z,83.50
2024-04-30T05:09:45.818Z,83.35
2024-04-30T05:12:12.471Z,83.52
2024-04-30T05:14:39.034Z,83.56
2024-04-30T05:17:06.719Z,83.61
2024-04-30T05:19:33.414Z,83.57
2024-04-30T05:22:00.088Z,83.80
2024-04-30T05:24:27.056Z,84.25
2024-04-30T05:26:53.608Z,84.42
2024-04-30T05:29:20.157Z,84.60
2024-04-30T05:31:46.764Z,84.64
2024-04-30T05:34:13.400Z,84.55
2024-04-30T05:36:40.102Z,84.83
2024-04-30T05:39:06.723Z,84.32
2024-04-30T05:41:33.295Z,84.73
2024-04-30T05:44:00.850Z,84.65
2024-04-30T05:46:27.687Z,84.83
2024-04-30T05:48:54.572Z,84.51
2024-04-30T05:51:21.145Z,84.49
2024-04-30T05:53:47.698Z,84.49
2024-04-30T05:56:14.311Z,84.87
2024-04-30T05:58:40.936Z,84.64
2024-04-30T06:01:07.720Z,84.56
2024-04-30T06:03:34.398Z,84.03
2024-04-30T06:06:00.978Z,83.83
2024-04-30T06:08:27.557Z,83.48
2024-04-30T06:10:54.236Z,83.60
2024-04-30T06:13:20.985Z,83.59
2024-04-30T06:15:47.559Z,83.62
2024-04-30T06:18:14.192Z,83.16
2024-04-30T06:20:40.878Z,83.04
2024-04-30T06:23:07.424Z,82.88
2024-04-30T06:25:34.044Z,82.77
2024-04-30T06:28:00.624Z,82.84
2024-04-30T06:30:27.162Z,83.29
2024-04-30T06:32:53.811Z,83.33
2024-04-30T06:35:20.444Z,83.50
2024-04-30T06:37:47.020Z,83.00
2024-04-30T06:40:13.667Z,82.67
2024-04-30T06:42:40.235Z,82.81
2024-04-30T06:45:07.060Z,82.90
2024-04-30T06:47:34.104Z,83.10
2024-04-30T06:50:00.819Z,83.04
2024-04-30T06:52:27.419Z,83.26
2024-04-30T06:54:54.019Z,82.99
2024-04-30T06:57:20.602Z,82.57
2024-04-30T06:59:47.143Z,82.63
2024-04-30T07:02:13.726Z,82.23
2024-04-30T07:04:40.323Z,81.96
2024-04-30T07:07:06.974Z,82.13
2024-04-30T07:09:33.561Z,81.27
2024-04-30T07:12:02.879Z,80.30
2024-04-30T07:14:29.717Z,79.60
2024-04-30T07:17:00.159Z,79.01
2024-04-30T07:19:33.460Z,77.57
2024-04-30T07:22:00.195Z,76.71
2024-04-30T07:24:26.842Z,75.50
2024-04-30T07:26:54.953Z,75.61
2024-04-30T07:29:21.576Z,75.99
2024-04-30T07:31:48.299Z,75.40
2024-04-30T07:34:14.921Z,75.38
2024-04-30T07:36:41.519Z,74.81
2024-04-30T07:39:08.065Z,75.09
2024-04-30T07:41:34.604Z,75.05
2024-04-30T07:44:01.157Z,73.75
2024-04-30T07:46:27.746Z,73.96
2024-04-30T07:48:55.264Z,74.52
2024-04-30T07:51:21.939Z,74.66
2024-04-30T07:53:48.677Z,74.75
2024-04-30T07:56:15.212Z,74.54
2024-04-30T07:58:41.906Z,73.82
2024-04-30T08:01:08.672Z,72.89
2024-04-30T08:03:35.301Z,73.57
2024-04-30T08:06:10.524Z,73.55
2024-04-30T08:08:41.516Z,71.64
2024-04-30T08:11:08.080Z,72.04
2024-04-30T08:13:34.785Z,71.11
2024-04-30T08:16:01.423Z,70.81
2024-04-30T08:18:28.400Z,70.65
2024-04-30T08:20:54.940Z,70.38
2024-04-30T08:23:21.565Z,68.57
2024-04-30T08:25:48.154Z,69.75
2024-04-30T08:28:14.774Z,70.07
2024-04-30T08:30:41.694Z,69.74
2024-04-30T08:33:08.751Z,68.92
2024-04-30T08:35:35.348Z,69.09
2024-04-30T08:38:03.188Z,68.71
2024-04-30T08:40:29.970Z,69.09
2024-04-30T08:42:56.917Z,69.10
2024-04-30T08:45:27.014Z,69.18
2024-04-30T08:47:55.255Z,69.38
2024-04-30T08:50:26.476Z,69.36
2024-04-30T08:52:54.879Z,69.83
2024-04-30T08:55:22.269Z,69.70
2024-04-30T08:57:48.875Z,69.84
2024-04-30T09:00:15.532Z,69.94
2024-04-30T09:02:42.147Z,69.35
2024-04-30T09:05:09.575Z,69.22
2024-04-30T09:07:38.057Z,69.84
2024-04-30T09:10:05.018Z,69.61
2024-04-30T09:12:31.755Z,69.57
2024-04-30T09:14:58.366Z,69.31
2024-04-30T09:17:25.987Z,69.15
2024-04-30T09:20:09.391Z,68.92
2024-04-30T09:22:46.982Z,68.52
2024-04-30T09:25:13.828Z,68.72
2024-04-30T09:27:40.401Z,68.43
2024-04-30T09:30:20.986Z,69.00
2024-04-30T09:32:47.687Z,68.28
2024-04-30T09:35:27.650Z,68.23
2024-04-30T09:38:01.265Z,68.06
2024-04-30T09:40:30.460Z,68.46
2024-04-30T09:42:57.201Z,68.56
2024-04-30T09:45:24.644Z,68.11
2024-04-30T09:47:51.821Z,67.65
2024-04-30T09:50:19.124Z,68.24
2024-04-30T09:52:46.706Z,67.75
2024-04-30T09:55:14.618Z,67.70
2024-04-30T09:57:43.819Z,67.43
2024-04-30T10:00:12.354Z,67.49
2024-04-30T10:02:48.413Z,66.91
2024-04-30T10:05:18.986Z,66.98
2024-04-30T10:07:47.744Z,66.99
2024-04-30T10:10:31.397Z,67.11
2024-04-30T10:13:11.973Z,66.11
2024-04-30T10:15:39.313Z,65.93
2024-04-30T10:18:07.369Z,65.82
2024-04-30T10:20:34.076Z,65.72
2024-04-30T10:23:06.122Z,65.63
2024-04-30T10:25:32.859Z,65.51
2024-04-30T10:28:07.651Z,65.52
2024-04-30T10:30:34.530Z,65.66
2024-04-30T10:33:01.346Z,65.76
2024-04-30T10:35:38.627Z,66.17
2024-04-30T10:38:05.258Z,65.75
2024-04-30T10:40:34.199Z,65.72
2024-04-30T10:43:00.852Z,65.24
2024-04-30T10:45:27.692Z,65.17
2024-04-30T10:47:54.400Z,65.46
2024-04-30T10:50:21.265Z,65.21
2024-04-30T10:52:48.084Z,65.36
2024-04-30T10:55:15.478Z,64.83
2024-04-30T10:57:43.869Z,64.33
2024-04-30T11:00:11.606Z,64.28
2024-04-30T11:02:47.256Z,63.95
2024-04-30T11:05:16.643Z,64.00
2024-04-30T11:08:03.649Z,63.51
2024-04-30T11:10:33.895Z,63.77
2024-04-30T11:13:04.053Z,63.83
2024-04-30T11:15:30.867Z,63.30
2024-04-30T11:17:57.540Z,62.57
2024-04-30T11:20:24.187Z,62.67
2024-04-30T11:22:50.724Z,62.40
2024-04-30T11:25:17.383Z,62.55
2024-04-30T11:27:44.102Z,61.76
2024-04-30T11:30:10.830Z,61.29
2024-04-30T11:32:37.437Z,61.63
2024-04-30T11:35:04.126Z,61.32
2024-04-30T11:37:30.767Z,60.13
2024-04-30T11:39:57.355Z,60.08
2024-04-30T11:42:27.689Z,60.34
2024-04-30T11:45:03.422Z,60.32
2024-04-30T11:47:30.113Z,60.42
2024-04-30T11:49:56.741Z,60.05
2024-04-30T11:52:23.309Z,59.63
2024-04-30T11:54:49.865Z,59.16
2024-04-30T11:57:16.407Z,59.69
2024-04-30T11:59:42.970Z,59.08
2024-04-30T12:02:09.560Z,58.94
2024-04-30T12:04:36.232Z,59.17
2024-04-30T12:07:02.908Z,59.22
2024-04-30T12:09:29.462Z,59.08
2024-04-30T12:11:56.007Z,59.16
2024-04-30T12:14:22.571Z,59.73
2024-04-30T12:16:50.404Z,59.30
2024-04-30T12:19:17.136Z,59.36
2024-04-30T12:21:44.638Z,58.53
2024-04-30T12:24:11.482Z,57.25
2024-04-30T12:26:38.209Z,55.69
2024-04-30T12:29:05.090Z,56.75
2024-04-30T12:31:31.943Z,56.49
2024-04-30T12:33:58.583Z,53.51
2024-04-30T12:36:25.164Z,53.46
2024-04-30T12:38:51.784Z,53.79
2024-04-30T12:41:19.253Z,53.11
2024-04-30T12:43:45.820Z,52.33
2024-04-30T12:46:12.473Z,52.79
2024-04-30T12:48:39.164Z,50.53
2024-04-30T12:51:05.828Z,50.63
2024-04-30T12:53:32.375Z,51.09
2024-04-30T12:55:59.095Z,50.96
2024-04-30T12:58:25.746Z,51.20
2024-04-30T13:00:54.719Z,51.49
2024-04-30T13:03:21.778Z,51.62
2024-04-30T13:05:48.440Z,51.63
2024-04-30T13:08:15.151Z,51.96
2024-04-30T13:10:41.850Z,51.50
2024-04-30T13:13:09.075Z,51.81
2024-04-30T13:15:35.704Z,51.79
2024-04-30T13:18:02.390Z,51.26
2024-04-30T13:20:28.988Z,50.48
2024-04-30T13:22:55.531Z,49.58
2024-04-30T13:25:22.180Z,49.38
2024-04-30T13:27:48.760Z,50.70
2024-04-30T13:30:15.471Z,50.26
2024-04-30T13:32:44.958Z,50.86
2024-04-30T13:35:11.602Z,50.12
2024-04-30T13:37:39.591Z,50.40
2024-04-30T13:40:07.349Z,50.57
2024-04-30T13:42:34.167Z,49.54
2024-04-30T13:45:00.817Z,49.90
2024-04-30T13:47:27.535Z,49.10
2024-04-30T13:49:54.917Z,49.08
2024-04-30T13:52:21.601Z,49.15
2024-04-30T13:54:48.251Z,49.12
2024-04-30T13:57:14.868Z,49.17
2024-04-30T13:59:41.436Z,48.86
2024-04-30T14:02:10.947Z,47.73
2024-04-30T14:04:37.752Z,48.41
2024-04-30T14:07:04.529Z,48.04
2024-04-30T14:09:33.944Z,47.25
2024-04-30T14:12:02.824Z,47.30
2024-04-30T14:14:29.608Z,46.52
2024-04-30T14:16:56.279Z,47.30
2024-04-30T14:19:23.338Z,47.29
2024-04-30T14:21:49.958Z,46.80
2024-04-30T14:24:16.532Z,46.60
2024-04-30T14:26:44.573Z,47.40
2024-04-30T14:29:12.218Z,46.91
2024-04-30T14:31:38.880Z,47.17
2024-04-30T14:34:05.436Z,46.63
2024-04-30T14:36:35.966Z,46.44
2024-04-30T14:39:06.973Z,46.60
2024-04-30T14:41:34.378Z,46.64
2024-04-30T14:44:00.979Z,46.01
2024-04-30T14:46:28.071Z,45.98
2024-04-30T14:48:54.803Z,46.16
2024-04-30T14:51:21.423Z,45.78
2024-04-30T14:53:48.017Z,46.14
2024-04-30T14:56:15.283Z,46.08
2024-04-30T14:58:42.203Z,46.25
2024-04-30T15:01:08.926Z,46.57
2024-04-30T15:03:35.661Z,46.93
2024-04-30T15:06:02.297Z,45.93
2024-04-30T15:08:29.150Z,45.47
2024-04-30T15:10:55.711Z,45.17
2024-04-30T15:13:22.331Z,45.87
2024-04-30T15:15:48.964Z,44.85
2024-04-30T15:18:15.672Z,44.35
2024-04-30T15:20:42.421Z,44.17
2024-04-30T15:23:09.442Z,43.78
2024-04-30T15:25:36.643Z,43.45
2024-04-30T15:28:03.479Z,43.62
2024-04-30T15:30:30.076Z,44.33
2024-04-30T15:32:56.821Z,44.59
2024-04-30T15:35:23.620Z,45.11
2024-04-30T15:37:50.248Z,44.28
2024-04-30T15:40:16.924Z,44.03
2024-04-30T15:42:46.428Z,45.06
2024-04-30T15:45:13.038Z,44.19
2024-04-30T15:47:40.087Z,44.97
2024-04-30T15:50:06.999Z,44.52
2024-04-30T15:52:33.821Z,44.06
2024-04-30T15:55:01.709Z,44.36
2024-04-30T15:57:30.540Z,44.42
2024-04-30T15:59:57.209Z,44.28
2024-04-30T16:02:23.808Z,43.83
2024-04-30T16:04:50.404Z,44.78
2024-04-30T16:07:16.975Z,44.89
2024-04-30T16:09:44.432Z,44.75
2024-04-30T16:12:10.970Z,44.50
2024-04-30T16:14:37.580Z,44.29
2024-04-30T16:17:04.449Z,45.22
2024-04-30T16:19:31.125Z,45.54
2024-04-30T16:21:57.697Z,46.14
2024-04-30T16:24:25.317Z,46.16
2024-04-30T16:26:52.161Z,45.15
2024-04-30T16:29:18.720Z,46.14
2024-04-30T16:31:45.290Z,46.63
2024-04-30T16:34:11.883Z,46.05
2024-04-30T16:36:38.439Z,45.70
2024-04-30T16:39:05.940Z,46.34
2024-04-30T16:41:32.517Z,46.25
2024-04-30T16:43:59.192Z,45.54
2024-04-30T16:46:26.108Z,46.59
2024-04-30T16:48:54.281Z,46.68
2024-04-30T16:51:21.122Z,46.07
2024-04-30T16:53:47.695Z,47.16
2024-04-30T16:56:15.328Z,48.54
2024-04-30T16:58:42.024Z,49.37
2024-04-30T17:01:08.723Z,49.92
2024-04-30T17:03:40.134Z,50.01
2024-04-30T17:06:11.656Z,49.54
2024-04-30T17:08:38.984Z,50.11
2024-04-30T17:11:06.999Z,50.39
2024-04-30T17:13:34.336Z,50.44
2024-04-30T17:16:02.095Z,50.51
2024-04-30T17:18:28.766Z,51.12
2024-04-30T17:20:59.238Z,51.17
2024-04-30T17:23:25.833Z,51.92
2024-04-30T17:25:52.505Z,51.90
2024-04-30T17:28:20.767Z,52.30
2024-04-30T17:30:47.470Z,52.46
2024-04-30T17:33:14.130Z,52.63
2024-04-30T17:35:40.827Z,53.24
2024-04-30T17:38:09.568Z,53.41
2024-04-30T17:40:36.029Z,53.50
2024-04-30T17:43:02.674Z,53.97
2024-04-30T17:45:29.319Z,54.49
2024-04-30T17:47:56.969Z,54.11
2024-04-30T17:50:23.562Z,54.83
2024-04-30T17:52:50.227Z,55.12
2024-04-30T17:55:16.877Z,54.97
2024-04-30T17:57:43.719Z,55.02
2024-04-30T18:00:10.619Z,55.14
2024-04-30T18:02:41.839Z,55.38
2024-04-30T18:05:09.536Z,55.84
2024-04-30T18:07:36.122Z,55.82
2024-04-30T18:10:03.173Z,56.20
2024-04-30T18:12:29.765Z,56.90
2024-04-30T18:14:56.331Z,56.86
2024-04-30T18:17:23.184Z,57.05
2024-04-30T18:19:49.844Z,57.26
2024-04-30T18:22:16.384Z,57.79
2024-04-30T18:24:42.978Z,58.26
2024-04-30T18:27:09.573Z,58.50
2024-04-30T18:29:36.192Z,59.26
2024-04-30T18:32:04.009Z,59.51
2024-04-30T18:34:30.815Z,59.83
2024-04-30T18:36:57.523Z,60.38
2024-04-30T18:39:24.227Z,61.11
2024-04-30T18:41:50.832Z,61.66
2024-04-30T18:44:17.384Z,61.85
2024-04-30T18:46:45.118Z,61.95
2024-04-30T18:49:11.775Z,62.24
2024-04-30T18:51:41.324Z,62.32
2024-04-30T18:54:08.903Z,62.74
2024-04-30T18:56:39.022Z,62.61
2024-04-30T18:59:05.557Z,62.48
2024-04-30T19:01:36.465Z,62.16
2024-04-30T19:04:03.779Z,61.91
2024-04-30T19:06:30.725Z,62.17
2024-04-30T19:08:57.891Z,62.34
2024-04-30T19:11:24.537Z,62.54
2024-04-30T19:13:51.154Z,62.91
2024-04-30T19:16:17.709Z,63.15
2024-04-30T19:18:44.413Z,63.29
2024-04-30T19:21:11.902Z,63.40
2024-04-30T19:23:38.688Z,63.42
2024-04-30T19:26:05.382Z,63.74
2024-04-30T19:28:32.202Z,63.74
2024-04-30T19:30:59.024Z,64.19
2024-04-30T19:33:25.899Z,64.21
2024-04-30T19:35:52.850Z,64.64
2024-04-30T19:38:19.411Z,65.15
2024-04-30T19:40:46.231Z,65.50
2024-04-30T19:43:16.245Z,65.79
2024-04-30T19:45:43.675Z,66.31
2024-04-30T19:48:15.277Z,66.53
2024-04-30T19:50:44.506Z,66.35
2024-04-30T19:53:11.131Z,66.37
2024-04-30T19:55:37.705Z,66.79
2024-04-30T19:58:04.365Z,66.88
2024-04-30T20:00:31.118Z,67.08
2024-04-30T20:02:58.906Z,66.86
2024-04-30T20:05:25.514Z,67.30
2024-04-30T20:07:52.719Z,67.05
2024-04-30T20:10:19.287Z,66.99
2024-04-30T20:12:46.091Z,66.98
2024-04-30T20:15:12.893Z,67.09
2024-04-30T20:17:39.500Z,67.26
2024-04-30T20:20:06.487Z,67.21
2024-04-30T20:22:33.068Z,66.83
2024-04-30T20:24:59.771Z,66.83
2024-04-30T20:27:26.425Z,66.67
2024-04-30T20:29:53.052Z,66.53
2024-04-30T20:32:19.620Z,66.56
2024-04-30T20:34:46.161Z,66.12
2024-04-30T20:37:12.804Z,66.05
2024-04-30T20:39:39.757Z,66.35
2024-04-30T20:42:06.671Z,66.57
2024-04-30T20:44:33.256Z,66.53
2024-04-30T20:46:59.820Z,66.63
2024-04-30T20:49:26.425Z,66.68
2024-04-30T20:51:53.091Z,66.52
2024-04-30T20:54:20.226Z,66.49
2024-04-30T20:56:46.803Z,66.53
2024-04-30T20:59:13.547Z,66.77
2024-04-30T21:01:40.332Z,66.80
2024-04-30T21:04:07.270Z,66.84
2024-04-30T21:06:33.981Z,66.58
2024-04-30T21:09:00.541Z,66.23
2024-04-30T21:11:27.315Z,66.00
2024-04-30T21:13:53.998Z,66.29
2024-04-30T21:16:20.774Z,66.00
2024-04-30T21:18:47.508Z,66.09
2024-04-30T21:21:14.243Z,65.46
2024-04-30T21:23:43.110Z,65.50
2024-04-30T21:26:10.219Z,65.93
2024-04-30T21:28:37.770Z,65.63
2024-04-30T21:31:04.596Z,65.88
2024-04-30T21:33:31.412Z,64.89
2024-04-30T21:35:58.366Z,64.67
2024-04-30T21:38:24.961Z,64.91
2024-04-30T21:40:51.664Z,64.56
2024-04-30T21:43:18.413Z,64.69
2024-04-30T21:45:45.235Z,64.73
2024-04-30T21:48:12.570Z,64.63
2024-04-30T21:50:39.166Z,65.31
2024-04-30T21:53:05.742Z,65.32
2024-04-30T21:55:32.293Z,65.44
2024-04-30T21:57:58.923Z,65.56
2024-04-30T22:00:25.660Z,65.90
2024-04-30T22:02:57.472Z,66.16
2024-04-30T22:05:26.948Z,66.52
2024-04-30T22:07:53.535Z,66.81
2024-04-30T22:10:20.175Z,66.51
2024-04-30T22:12:46.891Z,66.64
2024-04-30T22:15:16.894Z,66.95
2024-04-30T22:17:43.539Z,67.18
2024-04-30T22:20:10.342Z,67.26
2024-04-30T22:22:36.913Z,66.85
2024-04-30T22:25:04.638Z,67.40
2024-04-30T22:27:31.252Z,66.81
2024-04-30T22:30:05.798Z,66.90
2024-04-30T22:32:41.299Z,66.76
2024-04-30T22:35:08.038Z,66.83
2024-04-30T22:37:34.596Z,66.57
2024-04-30T22:40:01.376Z,66.57
2024-04-30T22:42:28.178Z,66.59
2024-04-30T22:44:54.745Z,66.44
2024-04-30T22:47:21.388Z,66.58
2024-04-30T22:49:48.002Z,66.53
2024-04-30T22:52:15.095Z,66.02
2024-04-30T22:54:43.316Z,65.99
2024-04-30T22:57:10.016Z,65.92
2024-04-30T22:59:36.656Z,65.73
2024-04-30T23:02:03.234Z,65.27
2024-04-30T23:04:29.900Z,65.10
2024-04-30T23:06:56.657Z,64.84
2024-04-30T23:09:23.382Z,64.95
2024-04-30T23:11:50.337Z,65.21
2024-04-30T23:14:16.918Z,65.30
2024-04-30T23:16:43.564Z,65.49
2024-04-30T23:19:10.517Z,65.07
2024-04-30T23:21:38.569Z,65.55
2024-04-30T23:24:05.927Z,64.96
2024-04-30T23:26:32.518Z,65.17
2024-04-30T23:28:59.122Z,65.39
2024-04-30T23:31:25.785Z,65.24
2024-04-30T23:33:52.510Z,65.40
2024-04-30T23:36:20.101Z,65.24
2024-04-30T23:38:46.768Z,65.00
2024-04-30T23:41:13.478Z,65.03
2024-04-30T23:43:40.172Z,65.44
2024-04-30T23:46:07.514Z,65.56
2024-04-30T23:48:34.093Z,65.26
2024-04-30T23:51:00.722Z,64.83
2024-04-30T23:53:27.316Z,64.71
2024-04-30T23:55:53.859Z,64.74
2024-04-30T23:58:20.410Z,64.54
